| time (UTC) | temp C | wind direction | speed KPH | gust KPH | rain 1hr cm | rain 24hr cm | rain mn cm | humidity % | barometer mb |
| 20260509190036 | 16 | 338 | 33.8 | 54.7 | 0.00 | 0.00 | 0.00 | 31 | 1009.8 |
| 20260509183037 | 16 | 338 | 33.8 | 56.3 | 0.00 | 0.00 | 0.00 | 33 | 1009.7 |
| 20260509180038 | 16 | 338 | 33.8 | 56.3 | 0.00 | 0.00 | 0.00 | 32 | 1009.4 |
| 20260509173018 | 16 | 338 | 33.8 | 56.3 | 0.00 | 0.00 | 0.00 | 37 | 1009.1 |
| 20260509170038 | 15 | 338 | 33.8 | 53.1 | 0.00 | 0.00 | 0.00 | 38 | 1009.0 |
| 20260509163017 | 15 | 338 | 32.2 | 53.1 | 0.00 | 0.00 | 0.00 | 41 | 1008.8 |
| 20260509160017 | 13 | 338 | 33.8 | 53.1 | 0.00 | 0.00 | 0.00 | 46 | 1008.5 |
| 20260509153059 | 13 | 338 | 32.2 | 46.7 | 0.00 | 0.00 | 0.00 | 55 | 1008.2 |
| 20260509150018 | 13 | 338 | 30.6 | 46.7 | 0.00 | 0.00 | 0.00 | 60 | 1008.0 |
| 20260509143017 | 12 | 338 | 30.6 | 48.3 | 0.00 | 0.00 | 0.00 | 66 | 1007.6 |
| 20260509140017 | 12 | 338 | 35.4 | 46.7 | 0.00 | 0.00 | 0.00 | 72 | 1007.2 |
| 20260509133018 | 12 | 338 | 33.8 | 46.7 | 0.00 | 0.00 | 0.00 | 74 | 1006.5 |
| 20260509130017 | 12 | 315 | 30.6 | 41.8 | 0.00 | 0.00 | 0.00 | 77 | 1005.7 |
| 20260509123016 | 11 | 293 | 22.5 | 35.4 | 0.00 | 0.00 | 0.00 | 74 | 1005.5 |
| 20260509120017 | 10 | 293 | 6.4 | 20.9 | 0.00 | 0.00 | 0.00 | 71 | 1005.0 |
| 20260509113016 | 10 | 293 | 3.2 | 12.9 | 0.00 | 0.00 | 0.00 | 65 | 1004.5 |
| 20260509110017 | 10 | 338 | 8.0 | 17.7 | 0.00 | 0.00 | 0.00 | 63 | 1004.7 |
| 20260509103016 | 10 | 338 | 16.1 | 22.5 | 0.00 | 0.00 | 0.00 | 60 | 1004.3 |
| 20260509100016 | 10 | 315 | 12.9 | 24.1 | 0.00 | 0.00 | 0.00 | 57 | 1004.2 |
| 20260509093036 | 10 | 315 | 17.7 | 45.1 | 0.00 | 0.00 | 0.00 | 56 | 1003.4 |
| 20260509090017 | 7 | 225 | 8.0 | 12.9 | 0.00 | 0.00 | 0.00 | 63 | 1002.0 |
| 20260509083017 | 7 | 225 | 4.8 | 9.7 | 0.00 | 0.00 | 0.00 | 61 | 1001.8 |
| 20260509080016 | 8 | 225 | 6.4 | 11.3 | 0.00 | 0.00 | 0.00 | 59 | 1001.8 |
| 20260509073016 | 8 | 225 | 4.8 | 11.3 | 0.00 | 0.00 | 0.00 | 57 | 1001.9 |
| 20260509070037 | 8 | 248 | 4.8 | 8.0 | 0.00 | 0.00 | 0.00 | 56 | 1002.4 |
| 20260509063016 | 8 | 248 | 6.4 | 12.9 | 0.00 | 0.00 | 0.00 | 54 | 1002.9 |
| 20260509060016 | 11 | 315 | 3.2 | 6.4 | 0.00 | 0.00 | 0.00 | 47 | 1003.3 |
| 20260509053016 | 12 | 315 | 1.6 | 4.8 | 0.00 | 0.00 | 0.00 | 44 | 1003.6 |
| 20260509050027 | 12 | 315 | 1.6 | 6.4 | 0.00 | 0.00 | 0.00 | 43 | 1004.0 |
| 20260509043017 | 13 | 315 | 4.8 | 9.7 | 0.00 | 0.00 | 0.00 | 41 | 1004.2 |
| 20260509040017 | 13 | 338 | 12.9 | 17.7 | 0.00 | 0.00 | 0.00 | 40 | 1004.4 |
| 20260509033016 | 15 | 338 | 16.1 | 25.7 | 0.00 | 0.00 | 0.00 | 37 | 1004.4 |
| 20260509030017 | 16 | 338 | 22.5 | 29.0 | 0.00 | 0.00 | 0.00 | 34 | 1004.3 |
| 20260509023017 | 16 | 315 | 20.9 | 29.0 | 0.00 | 0.00 | 0.00 | 33 | 1004.0 |
| 20260509020017 | 17 | 315 | 22.5 | 32.2 | 0.00 | 0.00 | 0.00 | 30 | 1003.7 |
| 20260509013017 | 18 | 315 | 27.4 | 40.2 | 0.00 | 0.00 | 0.00 | 27 | 1003.4 |
| 20260509010017 | 20 | 338 | 32.2 | 49.9 | 0.00 | 0.00 | 0.00 | 26 | 1003.1 |
| 20260509003017 | 21 | 315 | 33.8 | 49.9 | 0.00 | 0.00 | 0.00 | 26 | 1002.9 |
| 20260509000037 | 22 | 315 | 37.0 | 54.7 | 0.00 | 0.00 | 0.00 | 27 | 1002.9 |
| 20260508233016 | 22 | 315 | 37.0 | 53.1 | 0.00 | 0.00 | 0.00 | 26 | 1003.0 |
| 20260508230016 | 23 | 315 | 30.6 | 51.5 | 0.00 | 0.00 | 0.00 | 25 | 1002.9 |
| 20260508223016 | 23 | 315 | 33.8 | 45.1 | 0.00 | 0.00 | 0.00 | 26 | 1002.9 |
| 20260508220016 | 23 | 315 | 27.4 | 48.3 | 0.00 | 0.00 | 0.00 | 24 | 1002.8 |
| 20260508213017 | 23 | 293 | 17.7 | 45.1 | 0.00 | 0.00 | 0.00 | 25 | 1003.0 |
| 20260508210016 | 23 | 293 | 12.9 | 32.2 | 0.00 | 0.00 | 0.00 | 26 | 1003.5 |
| 20260508203015 | 22 | 315 | 19.3 | 38.6 | 0.00 | 0.00 | 0.00 | 24 | 1003.9 |
| 20260508200056 | 21 | 315 | 27.4 | 45.1 | 0.00 | 0.00 | 0.00 | 26 | 1004.4 |
| 20260508193018 | 21 | 315 | 27.4 | 43.5 | 0.00 | 0.00 | 0.00 | 25 | 1004.8 |